createdAt,value
2018-09-10T00:00:05.702Z,36
2018-09-10T00:02:07.920Z,36.2
2018-09-10T00:04:05.171Z,36.2
2018-09-10T00:06:08.428Z,36.1
2018-09-10T00:08:07.678Z,36.1
2018-09-10T00:10:05.407Z,36.1
2018-09-10T00:14:54.831Z,36
2018-09-10T00:15:44.401Z,36
2018-09-10T00:17:10.265Z,36
2018-09-10T00:21:02.834Z,36.1
2018-09-10T00:21:14.069Z,36
2018-09-10T00:22:05.752Z,36
2018-09-10T00:24:05.512Z,36
2018-09-10T00:26:08.383Z,35.9
2018-09-10T00:28:05.083Z,35.9
2018-09-10T00:30:05.833Z,35.9
2018-09-10T00:32:05.601Z,35.9
2018-09-10T00:34:05.315Z,36
2018-09-10T00:36:11.162Z,35.9
2018-09-10T00:38:05.868Z,35.9
2018-09-10T00:40:05.583Z,35.8
2018-09-10T00:42:05.284Z,35.8
2018-09-10T00:44:08.698Z,35.9
2018-09-10T00:46:05.038Z,35.6
2018-09-10T00:48:05.748Z,35.9
2018-09-10T00:50:05.939Z,35.9
2018-09-10T00:52:05.152Z,35.9
2018-09-10T00:54:05.363Z,36
2018-09-10T00:56:05.212Z,36
2018-09-10T00:58:13.458Z,35.8
2018-09-10T01:00:05.161Z,35.8
2018-09-10T01:02:05.889Z,35.9
2018-09-10T01:04:05.600Z,35.9
2018-09-10T01:06:10.356Z,35.8
2018-09-10T01:08:05.092Z,35.8
2018-09-10T01:10:10.851Z,35.7
2018-09-10T01:12:05.144Z,35.7
2018-09-10T01:14:08.022Z,35.6
2018-09-10T01:16:05.789Z,35.6
2018-09-10T01:18:10.783Z,35.6
2018-09-10T01:20:08.530Z,35.6
2018-09-10T01:22:05.941Z,35.6
2018-09-10T01:24:05.647Z,35.7
2018-09-10T01:26:07.897Z,35.9
2018-09-10T01:28:05.129Z,35.9
2018-09-10T01:30:05.833Z,36
2018-09-10T01:32:05.489Z,35.9
2018-09-10T01:34:05.149Z,35.9
2018-09-10T01:36:05.856Z,36
2018-09-10T01:38:13.108Z,35.9
2018-09-10T01:40:05.844Z,36
2018-09-10T01:42:05.559Z,36
2018-09-10T01:44:05.808Z,36
2018-09-10T01:46:05.036Z,36
2018-09-10T01:48:05.331Z,36
2018-09-10T01:50:05.089Z,36
2018-09-10T01:52:05.322Z,36.1
2018-09-10T01:54:06.068Z,36
2018-09-10T01:56:05.942Z,36.1
2018-09-10T01:58:08.253Z,36.2
2018-09-10T02:00:08.529Z,36.2
2018-09-10T02:02:08.395Z,36.1
2018-09-10T02:04:07.637Z,36.4
2018-09-10T02:06:05.330Z,36.2
2018-09-10T02:08:10.045Z,36.5
2018-09-10T02:10:05.757Z,36.5
2018-09-10T02:12:06.087Z,36.5
2018-09-10T02:14:05.401Z,36.6
2018-09-10T02:16:05.150Z,36.5
2018-09-10T02:18:05.068Z,36.5
2018-09-10T02:20:05.740Z,36.6
2018-09-10T02:22:15.525Z,36.7
2018-09-10T02:24:07.739Z,36.8
2018-09-10T02:26:07.968Z,36.8
2018-09-10T02:28:05.703Z,36.8
2018-09-10T02:30:10.557Z,36.7
2018-09-10T02:32:05.329Z,36.9
2018-09-10T02:34:05.006Z,37
2018-09-10T02:36:08.400Z,37
2018-09-10T02:38:05.091Z,36.8
2018-09-10T02:40:05.771Z,37.1
2018-09-10T02:42:08.038Z,37.1
2018-09-10T02:44:10.393Z,37.1
2018-09-10T02:46:05.158Z,36.9
2018-09-10T02:48:08.401Z,37.1
2018-09-10T02:50:07.618Z,37.2
2018-09-10T02:52:05.328Z,37
2018-09-10T02:54:05.577Z,37.1
2018-09-10T02:56:05.252Z,37.3
2018-09-10T02:58:08.453Z,37.3
2018-09-10T03:00:05.110Z,37.3
2018-09-10T03:02:05.799Z,37.3
2018-09-10T03:04:08.119Z,37.4
2018-09-10T03:06:08.375Z,37.1
2018-09-10T03:08:05.635Z,37.3
2018-09-10T03:10:05.359Z,37.2
2018-09-10T03:12:05.047Z,37.2
2018-09-10T03:14:05.750Z,37.2
2018-09-10T03:16:05.528Z,37.2
2018-09-10T03:18:05.701Z,37.2
2018-09-10T03:20:05.676Z,37.3
2018-09-10T03:22:11.079Z,37.2
2018-09-10T03:24:05.866Z,37.2
2018-09-10T03:26:08.361Z,37.2
2018-09-10T03:28:05.037Z,37.2
2018-09-10T03:30:05.776Z,37.2
2018-09-10T03:32:07.963Z,37.2
2018-09-10T03:34:05.720Z,37.2
2018-09-10T03:36:05.452Z,37.2
2018-09-10T03:38:07.711Z,37.2
2018-09-10T03:40:07.908Z,37.2
2018-09-10T03:42:08.232Z,37.3
2018-09-10T03:44:05.917Z,37.3
2018-09-10T03:46:05.623Z,37.3
2018-09-10T03:48:05.326Z,37.3
2018-09-10T03:50:05.132Z,37.3
2018-09-10T03:52:10.406Z,37.4
2018-09-10T03:54:05.621Z,37.4
2018-09-10T03:56:05.382Z,37.4
2018-09-10T03:58:12.708Z,37.2
2018-09-10T04:00:05.949Z,37.4
2018-09-10T04:02:08.185Z,37.1
2018-09-10T04:04:08.445Z,37.2
2018-09-10T04:06:05.131Z,37.5
2018-09-10T04:08:05.894Z,37.2
2018-09-10T04:10:05.547Z,37.2
2018-09-10T04:12:07.768Z,37.5
2018-09-10T04:14:05.481Z,37.2
2018-09-10T04:16:05.281Z,37.3
2018-09-10T04:18:08.247Z,37.4
2018-09-10T04:20:05.952Z,37.4
2018-09-10T04:22:05.247Z,37.4
2018-09-10T04:24:08.533Z,37.5
2018-09-10T04:26:05.487Z,37.5
2018-09-10T04:28:05.768Z,37.5
2018-09-10T04:30:05.466Z,37.5
2018-09-10T04:32:05.736Z,37.5
2018-09-10T04:34:05.437Z,37.5
2018-09-10T04:36:05.269Z,37.6
2018-09-10T04:38:05.411Z,37.7
2018-09-10T04:40:05.099Z,37.7
2018-09-10T04:42:06.716Z,37.8
2018-09-10T04:44:05.109Z,38
2018-09-10T04:46:05.843Z,38
2018-09-10T04:48:16.524Z,38.2
2018-09-10T04:50:08.756Z,38.4
2018-09-10T04:52:08.288Z,38.2
2018-09-10T04:54:05.933Z,38.2
2018-09-10T04:56:13.162Z,38.2
2018-09-10T04:58:05.983Z,38.1
2018-09-10T05:00:08.552Z,38.1
2018-09-10T05:02:05.773Z,38.1
2018-09-10T05:04:05.476Z,38.1
2018-09-10T05:06:07.765Z,38.1
2018-09-10T05:08:05.468Z,38.1
2018-09-10T05:10:05.327Z,38.2
2018-09-10T05:12:07.890Z,38.3
2018-09-10T05:14:05.158Z,38.3
2018-09-10T05:16:05.426Z,38.4
2018-09-10T05:18:08.734Z,38.4
2018-09-10T05:20:05.247Z,38.2
2018-09-10T05:22:06.307Z,38.1
2018-09-10T05:24:05.852Z,38
2018-09-10T05:26:05.609Z,38.1
2018-09-10T05:28:08.487Z,38.4
2018-09-10T05:30:05.422Z,38.4
2018-09-10T05:32:08.136Z,38.4
2018-09-10T05:34:05.316Z,38.4
2018-09-10T05:36:05.123Z,38.3
2018-09-10T05:38:05.842Z,38.5
2018-09-10T05:40:05.090Z,38.5
2018-09-10T05:42:05.871Z,38.7
2018-09-10T05:44:08.078Z,38.4
2018-09-10T05:46:05.828Z,38.4
2018-09-10T05:48:05.601Z,38.4
2018-09-10T05:50:05.298Z,38.6
2018-09-10T05:52:05.564Z,38.8
2018-09-10T05:54:05.283Z,38.7
2018-09-10T05:56:05.973Z,38.5
2018-09-10T05:58:05.653Z,38.8
2018-09-10T06:00:07.929Z,38.7
2018-09-10T06:02:05.631Z,38.7
2018-09-10T06:04:12.935Z,38.8
2018-09-10T06:06:05.627Z,38.8
2018-09-10T06:08:05.330Z,38.8
2018-09-10T06:10:05.081Z,38.7
2018-09-10T06:12:05.771Z,38.7
2018-09-10T06:14:05.484Z,38.7
2018-09-10T06:16:05.158Z,38.9
2018-09-10T06:18:05.131Z,39
2018-09-10T06:20:05.362Z,39
2018-09-10T06:22:05.109Z,39
2018-09-10T06:24:05.801Z,39.1
2018-09-10T06:26:05.526Z,38.8
2018-09-10T06:28:05.200Z,39.1
2018-09-10T06:30:08.137Z,39.3
2018-09-10T06:32:13.588Z,39.4
2018-09-10T06:34:06.040Z,39.4
2018-09-10T06:36:08.748Z,39.5
2018-09-10T06:38:05.423Z,39.5
2018-09-10T06:40:08.186Z,39.5
2018-09-10T06:42:05.420Z,39.5
2018-09-10T06:44:05.164Z,39.5
2018-09-10T06:46:13.395Z,39.7
2018-09-10T06:48:05.191Z,39.7
2018-09-10T06:50:05.941Z,39.8
2018-09-10T06:52:05.622Z,40.1
2018-09-10T06:54:05.360Z,40
2018-09-10T06:56:05.093Z,39.8
2018-09-10T06:58:05.772Z,40.1
2018-09-10T07:00:08.192Z,40.1
2018-09-10T07:02:08.506Z,40
2018-09-10T07:04:08.304Z,40.3
2018-09-10T07:06:07.570Z,40.3
2018-09-10T07:08:07.782Z,40.6
2018-09-10T07:10:05.425Z,40.3
2018-09-10T07:12:07.654Z,40.5
2018-09-10T07:14:07.953Z,40.2
2018-09-10T07:16:07.709Z,40.6
2018-09-10T07:18:05.705Z,40.6
2018-09-10T07:20:06.394Z,40.8
2018-09-10T07:22:12.769Z,40.8
2018-09-10T07:24:10.591Z,40.8
2018-09-10T07:26:05.321Z,40.8
2018-09-10T07:28:05.119Z,40.9
2018-09-10T07:30:05.472Z,41.1
2018-09-10T07:32:05.156Z,41
2018-09-10T07:34:05.897Z,40.9
2018-09-10T07:36:05.612Z,40.9
2018-09-10T07:38:05.935Z,41.1
2018-09-10T07:40:08.224Z,41.1
2018-09-10T07:42:08.506Z,41.1
2018-09-10T07:44:10.420Z,41
2018-09-10T07:46:05.265Z,41
2018-09-10T07:48:05.541Z,41.1
2018-09-10T07:50:05.308Z,41.4
2018-09-10T07:52:05.038Z,41.3
2018-09-10T07:54:05.319Z,41.4
2018-09-10T07:56:07.586Z,41.4
2018-09-10T07:58:05.801Z,41.4
2018-09-10T08:00:05.535Z,41.4
2018-09-10T08:02:05.945Z,41.4
2018-09-10T08:04:05.167Z,41.6
2018-09-10T08:06:08.402Z,41.6
2018-09-10T08:08:05.105Z,41.6
2018-09-10T08:10:08.407Z,42.1
2018-09-10T08:12:05.114Z,42.1
2018-09-10T08:14:05.838Z,42.1
2018-09-10T08:16:05.534Z,42.1
2018-09-10T08:18:05.437Z,42.2
2018-09-10T08:20:05.089Z,42.4
2018-09-10T08:22:05.824Z,42.7
2018-09-10T08:24:11.336Z,42.5
2018-09-10T08:26:07.985Z,42.6
2018-09-10T08:28:05.662Z,42.6
2018-09-10T08:30:05.451Z,42.6
2018-09-10T08:32:07.772Z,42.7
2018-09-10T08:34:10.553Z,42.7
2018-09-10T08:36:08.349Z,42.7
2018-09-10T08:38:07.838Z,42.6
2018-09-10T08:40:05.567Z,42.6
2018-09-10T08:42:05.281Z,42.6
2018-09-10T08:44:06.016Z,42.7
2018-09-10T08:46:05.704Z,42.6
2018-09-10T08:48:08.007Z,42.9
2018-09-10T08:50:08.343Z,42.7
2018-09-10T08:52:05.039Z,42.7
2018-09-10T08:54:05.911Z,42.8
2018-09-10T08:56:06.456Z,43
2018-09-10T08:58:05.915Z,42.9
2018-09-10T09:00:05.827Z,43.6
2018-09-10T09:02:07.730Z,43
2018-09-10T09:04:05.394Z,43.1
2018-09-10T09:06:05.517Z,43.3
2018-09-10T09:08:08.631Z,43.4
2018-09-10T09:10:05.933Z,43.2
2018-09-10T09:12:05.689Z,43.2
2018-09-10T09:14:05.392Z,42.9
2018-09-10T09:16:10.218Z,42.9
2018-09-10T09:18:08.069Z,43
2018-09-10T09:20:05.716Z,42.9
2018-09-10T09:22:05.400Z,43.3
2018-09-10T09:24:05.173Z,43.5
2018-09-10T09:26:05.934Z,43.3
2018-09-10T09:28:06.026Z,43.2
2018-09-10T09:30:05.384Z,43.5
2018-09-10T09:32:07.889Z,43.4
2018-09-10T09:34:05.540Z,43.4
2018-09-10T09:36:10.350Z,43.2
2018-09-10T09:38:05.275Z,43.4
2018-09-10T09:40:08.194Z,43.2
2018-09-10T09:42:05.052Z,43.2
2018-09-10T09:44:08.241Z,43.4
2018-09-10T09:46:05.916Z,43.4
2018-09-10T09:48:05.629Z,43.4
2018-09-10T09:50:05.338Z,43.6
2018-09-10T09:52:05.624Z,43.6
2018-09-10T09:54:05.312Z,43.6
2018-09-10T09:56:05.972Z,43.6
2018-09-10T09:58:05.820Z,43.6
2018-09-10T10:00:05.549Z,43.8
2018-09-10T10:02:05.278Z,43.8
2018-09-10T10:04:06.103Z,43.9
2018-09-10T10:06:05.135Z,43.8
2018-09-10T10:08:05.811Z,43.8
2018-09-10T10:10:05.579Z,43.8
2018-09-10T10:12:08.209Z,43.5
2018-09-10T10:14:05.382Z,43.5
2018-09-10T10:16:05.069Z,43.7
2018-09-10T10:18:05.939Z,43.6
2018-09-10T10:20:05.676Z,43.3
2018-09-10T10:22:05.511Z,43.3
2018-09-10T10:24:05.532Z,43.4
2018-09-10T10:26:05.273Z,43.3
2018-09-10T10:28:05.569Z,43.2
2018-09-10T10:30:07.890Z,43.2
2018-09-10T10:32:08.149Z,43.4
2018-09-10T10:34:05.817Z,43.4
2018-09-10T10:36:05.562Z,43.6
2018-09-10T10:38:05.227Z,43.6
2018-09-10T10:40:05.542Z,43.5
2018-09-10T10:42:05.259Z,43.3
2018-09-10T10:44:05.968Z,43.7
2018-09-10T10:46:05.651Z,43.6
2018-09-10T10:48:08.444Z,43.1
2018-09-10T10:50:08.183Z,42.8
2018-09-10T10:52:05.906Z,42.8
2018-09-10T10:54:07.699Z,42.7
2018-09-10T10:56:07.961Z,42.5
2018-09-10T10:58:05.657Z,42.3
2018-09-10T11:00:05.308Z,42.8
2018-09-10T11:02:06.022Z,43.1
2018-09-10T11:04:10.924Z,43
2018-09-10T11:06:05.791Z,43.1
2018-09-10T11:08:05.529Z,43.2
2018-09-10T11:10:10.843Z,43
2018-09-10T11:12:05.532Z,43.2
2018-09-10T11:14:05.771Z,43
2018-09-10T11:16:05.480Z,43
2018-09-10T11:18:05.242Z,43.1
2018-09-10T11:20:08.457Z,43.1
2018-09-10T11:22:05.745Z,43.1
2018-09-10T11:24:08.094Z,43.1
2018-09-10T11:26:05.829Z,43.1
2018-09-10T11:28:05.090Z,42.9
2018-09-10T11:30:05.797Z,42.8
2018-09-10T11:32:05.513Z,43
2018-09-10T11:34:05.808Z,42.8
2018-09-10T11:36:05.565Z,42.8
2018-09-10T11:38:05.614Z,42.8
2018-09-10T11:40:05.451Z,42.9
2018-09-10T11:42:05.565Z,43
2018-09-10T11:44:05.744Z,42.9
2018-09-10T11:46:07.951Z,42.9
2018-09-10T11:48:08.263Z,42.8
2018-09-10T11:50:05.984Z,43
2018-09-10T11:52:10.751Z,43
2018-09-10T11:54:05.992Z,42.8
2018-09-10T11:56:05.710Z,43.1
2018-09-10T11:58:10.443Z,43
2018-09-10T12:00:05.125Z,43
2018-09-10T12:02:06.066Z,43
2018-09-10T12:04:06.083Z,43
2018-09-10T12:06:05.839Z,43
2018-09-10T12:08:05.508Z,43.1
2018-09-10T12:10:08.276Z,43.1
2018-09-10T12:12:06.047Z,43.1
2018-09-10T12:14:08.274Z,43.1
2018-09-10T12:16:07.616Z,43.2
2018-09-10T12:18:08.075Z,43.1
2018-09-10T12:20:05.357Z,43.1
2018-09-10T12:22:07.627Z,43.1
2018-09-10T12:24:05.308Z,43.1
2018-09-10T12:26:05.550Z,43.3
2018-09-10T12:28:05.234Z,43.1
2018-09-10T12:30:06.018Z,43
2018-09-10T12:32:10.304Z,43
2018-09-10T12:34:08.601Z,43
2018-09-10T12:36:05.290Z,43
2018-09-10T12:38:13.573Z,43
2018-09-10T12:40:07.838Z,43.1
2018-09-10T12:42:05.501Z,42.9
2018-09-10T12:44:05.246Z,42.8
2018-09-10T12:46:05.931Z,43.1
2018-09-10T12:48:05.592Z,42.8
2018-09-10T12:50:05.250Z,42.8
2018-09-10T12:52:05.975Z,42.8
2018-09-10T12:54:08.223Z,42.9
2018-09-10T12:56:05.912Z,42.9
2018-09-10T12:58:05.635Z,42.8
2018-09-10T13:00:05.379Z,42.8
2018-09-10T13:02:07.605Z,42.8
2018-09-10T13:04:05.423Z,42.8
2018-09-10T13:06:05.251Z,42.7
2018-09-10T13:08:05.927Z,42.9
2018-09-10T13:10:05.662Z,42.9
2018-09-10T13:12:05.342Z,42.9
2018-09-10T13:14:05.039Z,42.8
2018-09-10T13:16:05.363Z,42.8
2018-09-10T13:18:05.333Z,42.7
2018-09-10T13:20:05.095Z,42.7
2018-09-10T13:22:08.408Z,42.6
2018-09-10T13:24:05.088Z,42.6
2018-09-10T13:26:05.812Z,42.5
2018-09-10T13:28:05.528Z,42.5
2018-09-10T13:30:07.760Z,42.5
2018-09-10T13:32:08.001Z,42.5
2018-09-10T13:34:05.683Z,42.4
2018-09-10T13:36:05.332Z,42.5
2018-09-10T13:38:05.985Z,42.4
2018-09-10T13:40:05.277Z,42.3
2018-09-10T13:42:05.533Z,42.3
2018-09-10T13:44:07.756Z,42.3
2018-09-10T13:46:06.024Z,42.3
2018-09-10T13:48:05.246Z,42.2
2018-09-10T13:50:07.972Z,42.2
2018-09-10T13:52:05.664Z,42.2
2018-09-10T13:54:05.626Z,42.2
2018-09-10T13:56:05.753Z,42.1
2018-09-10T13:58:10.540Z,42.1
2018-09-10T14:00:07.794Z,42
2018-09-10T14:02:05.512Z,42.1
2018-09-10T14:04:10.383Z,42.1
2018-09-10T14:06:05.193Z,42.1
2018-09-10T14:08:05.887Z,42.3
2018-09-10T14:10:05.605Z,42.1
2018-09-10T14:12:05.309Z,42
2018-09-10T14:14:15.193Z,42.3
2018-09-10T14:16:05.953Z,42
2018-09-10T14:18:11.080Z,42
2018-09-10T14:20:08.492Z,42
2018-09-10T14:22:08.151Z,42
2018-09-10T14:24:08.415Z,41.9
2018-09-10T14:26:05.123Z,41.9
2018-09-10T14:28:05.904Z,42.1
2018-09-10T14:30:08.229Z,41.9
2018-09-10T14:32:07.693Z,42.1
2018-09-10T14:34:10.454Z,41.9
2018-09-10T14:36:05.529Z,41.9
2018-09-10T14:38:05.879Z,41.9
2018-09-10T14:40:10.709Z,41.8
2018-09-10T14:42:07.981Z,42
2018-09-10T14:44:05.306Z,42
2018-09-10T14:46:05.040Z,41.8
2018-09-10T14:48:08.657Z,42
2018-09-10T14:50:05.233Z,42
2018-09-10T14:52:05.999Z,42
2018-09-10T14:54:05.245Z,42
2018-09-10T14:56:08.601Z,42
2018-09-10T14:58:05.564Z,42
2018-09-10T15:00:05.504Z,42
2018-09-10T15:02:05.748Z,42
2018-09-10T15:04:08.061Z,42
2018-09-10T15:06:08.512Z,41.9
2018-09-10T15:08:05.313Z,41.9
2018-09-10T15:10:10.395Z,41.5
2018-09-10T15:12:07.870Z,41.5
2018-09-10T15:14:08.533Z,41.7
2018-09-10T15:16:05.480Z,41.7
2018-09-10T15:18:05.898Z,41.8
2018-09-10T15:20:08.149Z,41.4
2018-09-10T15:22:05.889Z,41.4
2018-09-10T15:24:05.631Z,41.3
2018-09-10T15:26:05.627Z,41.5
2018-09-10T15:28:05.641Z,41.5
2018-09-10T15:30:05.374Z,41.1
2018-09-10T15:32:06.024Z,41.3
2018-09-10T15:34:05.788Z,41.4
2018-09-10T15:36:05.509Z,41.2
2018-09-10T15:38:05.233Z,41.1
2018-09-10T15:40:08.453Z,41
2018-09-10T15:42:05.113Z,41.1
2018-09-10T15:44:05.805Z,41
2018-09-10T15:46:05.492Z,41.2
2018-09-10T15:48:05.187Z,41.4
2018-09-10T15:50:07.960Z,40.9
2018-09-10T15:52:05.748Z,41.2
2018-09-10T15:54:05.994Z,41.2
2018-09-10T15:56:05.458Z,41
2018-09-10T15:58:05.145Z,41
2018-09-10T16:00:11.245Z,40.7
2018-09-10T16:02:05.368Z,40.8
2018-09-10T16:04:10.740Z,40.5
2018-09-10T16:06:05.422Z,40.5
2018-09-10T16:08:05.095Z,40.4
2018-09-10T16:10:05.832Z,40.2
2018-09-10T16:12:05.621Z,40.2
2018-09-10T16:14:05.325Z,40.2
2018-09-10T16:16:10.112Z,40
2018-09-10T16:18:11.031Z,40.1
2018-09-10T16:20:05.764Z,40.1
2018-09-10T16:22:05.500Z,40
2018-09-10T16:24:05.147Z,40.1
2018-09-10T16:26:08.310Z,40
2018-09-10T16:28:06.065Z,39.9
2018-09-10T16:30:08.268Z,39.9
2018-09-10T16:32:10.991Z,39.9
2018-09-10T16:34:07.778Z,39.8
2018-09-10T16:36:05.545Z,39.8
2018-09-10T16:38:05.894Z,39.8
2018-09-10T16:40:06.240Z,39.9
2018-09-10T16:42:05.224Z,39.8
2018-09-10T16:44:05.910Z,39.8
2018-09-10T16:46:05.109Z,39.8
2018-09-10T16:48:05.845Z,39.8
2018-09-10T16:50:05.568Z,39.6
2018-09-10T16:52:05.277Z,39.6
2018-09-10T16:54:06.137Z,39.9
2018-09-10T16:56:05.657Z,40
2018-09-10T16:58:05.859Z,39.7
2018-09-10T17:00:08.124Z,39.5
2018-09-10T17:02:05.356Z,39.5
2018-09-10T17:04:05.847Z,39.5
2018-09-10T17:06:05.539Z,39.5
2018-09-10T17:08:05.486Z,39.4
2018-09-10T17:10:05.791Z,39.5
2018-09-10T17:12:05.667Z,39.4
2018-09-10T17:14:05.464Z,39.5
2018-09-10T17:16:06.052Z,39.5
2018-09-10T17:18:05.947Z,39.5
2018-09-10T17:20:05.660Z,39.6
2018-09-10T17:22:05.400Z,39.5
2018-09-10T17:24:05.098Z,39.5
2018-09-10T17:26:05.787Z,39.6
2018-09-10T17:28:05.470Z,39.6
2018-09-10T17:30:05.269Z,39.5
2018-09-10T17:32:08.506Z,39.5
2018-09-10T17:34:05.276Z,39.5
2018-09-10T17:36:05.950Z,39.5
2018-09-10T17:38:05.670Z,39.5
2018-09-10T17:40:05.372Z,39.5
2018-09-10T17:42:12.660Z,39.5
2018-09-10T17:44:05.358Z,39.5
2018-09-10T17:46:05.776Z,39.5
2018-09-10T17:48:08.053Z,39.6
2018-09-10T17:50:05.777Z,39.7
2018-09-10T17:52:05.530Z,39.7
2018-09-10T17:54:05.225Z,39.8
2018-09-10T17:56:05.964Z,39.8
2018-09-10T17:58:05.709Z,39.8
2018-09-10T18:00:05.399Z,39.7
2018-09-10T18:02:05.678Z,39.7
2018-09-10T18:04:05.373Z,39.7
2018-09-10T18:06:05.049Z,39.8
2018-09-10T18:08:05.293Z,39.7
2018-09-10T18:10:05.118Z,39.7
2018-09-10T18:12:05.853Z,39.6
2018-09-10T18:14:05.602Z,39.7
2018-09-10T18:16:05.311Z,39.7
2018-09-10T18:18:05.735Z,39.7
2018-09-10T18:20:05.443Z,39.8
2018-09-10T18:22:05.183Z,39.8
2018-09-10T18:24:05.924Z,39.8
2018-09-10T18:26:05.615Z,39.8
2018-09-10T18:28:05.390Z,39.9
2018-09-10T18:30:07.638Z,39.8
2018-09-10T18:32:05.942Z,39.8
2018-09-10T18:34:05.808Z,39.8
2018-09-10T18:36:05.620Z,39.8
2018-09-10T18:38:05.365Z,39.9
2018-09-10T18:40:05.164Z,39.9
2018-09-10T18:42:05.529Z,39.8
2018-09-10T18:44:05.203Z,39.8
2018-09-10T18:46:05.451Z,39.9
2018-09-10T18:48:07.706Z,39.9
2018-09-10T18:50:05.525Z,39.9
2018-09-10T18:52:05.306Z,40
2018-09-10T18:54:10.159Z,40
2018-09-10T18:56:05.388Z,40
2018-09-10T18:58:05.137Z,39.9
2018-09-10T19:00:05.929Z,40
2018-09-10T19:02:05.655Z,40
2018-09-10T19:04:05.388Z,40
2018-09-10T19:06:05.088Z,40
2018-09-10T19:08:05.766Z,40
2018-09-10T19:10:05.485Z,40
2018-09-10T19:12:12.829Z,40
2018-09-10T19:14:05.547Z,40
2018-09-10T19:16:05.356Z,40
2018-09-10T19:18:05.934Z,40.1
2018-09-10T19:20:05.075Z,40.1
2018-09-10T19:22:10.890Z,40.1
2018-09-10T19:24:05.095Z,39.8
2018-09-10T19:26:05.791Z,40.1
2018-09-10T19:28:05.095Z,40.1
2018-09-10T19:30:05.756Z,40.2
2018-09-10T19:32:07.971Z,40.2
2018-09-10T19:34:05.718Z,40
2018-09-10T19:36:05.544Z,40
2018-09-10T19:38:05.281Z,40.1
2018-09-10T19:40:08.524Z,40
2018-09-10T19:42:05.188Z,40
2018-09-10T19:44:06.015Z,40
2018-09-10T19:46:05.963Z,40
2018-09-10T19:48:05.631Z,40.1
2018-09-10T19:50:05.298Z,40.2
2018-09-10T19:52:06.134Z,40.2
2018-09-10T19:54:08.329Z,40.2
2018-09-10T19:56:05.599Z,40.1
2018-09-10T19:58:05.833Z,40.1
2018-09-10T20:00:10.585Z,40.1
2018-09-10T20:02:05.279Z,40.1
2018-09-10T20:04:13.618Z,40.1
2018-09-10T20:06:05.376Z,40.1
2018-09-10T20:08:05.118Z,40.2
2018-09-10T20:10:06.018Z,40.1
2018-09-10T20:12:05.793Z,40.1
2018-09-10T20:14:05.561Z,40.1
2018-09-10T20:16:05.323Z,40.1
2018-09-10T20:18:05.266Z,39.9
2018-09-10T20:20:05.138Z,40
2018-09-10T20:22:06.032Z,39.9
2018-09-10T20:24:15.612Z,39.9
2018-09-10T20:26:05.334Z,39.9
2018-09-10T20:28:05.025Z,39.9
2018-09-10T20:30:05.749Z,40
2018-09-10T20:32:08.005Z,40
2018-09-10T20:34:05.346Z,39.9
2018-09-10T20:36:05.032Z,40.2
2018-09-10T20:38:05.727Z,40
2018-09-10T20:40:05.518Z,40.2
2018-09-10T20:42:05.756Z,40.3
2018-09-10T20:44:07.978Z,40.3
2018-09-10T20:46:10.501Z,40.1
2018-09-10T20:48:05.421Z,40.1
2018-09-10T20:50:05.305Z,40.1
2018-09-10T20:52:08.583Z,40.3
2018-09-10T20:54:05.572Z,40.3
2018-09-10T20:56:07.808Z,40
2018-09-10T20:58:10.595Z,40.1
2018-09-10T21:00:05.311Z,40.1
2018-09-10T21:02:06.011Z,40
2018-09-10T21:04:08.245Z,40
2018-09-10T21:06:05.923Z,40
2018-09-10T21:08:08.158Z,40
2018-09-10T21:10:05.865Z,40
2018-09-10T21:12:05.533Z,40
2018-09-10T21:14:05.210Z,40.1
2018-09-10T21:16:08.468Z,40.1
2018-09-10T21:18:07.936Z,40.1
2018-09-10T21:20:08.221Z,39.9
2018-09-10T21:22:05.918Z,39.9
2018-09-10T21:24:05.568Z,40.2
2018-09-10T21:26:07.811Z,40.2
2018-09-10T21:28:05.050Z,40
2018-09-10T21:30:13.350Z,40
2018-09-10T21:32:05.034Z,40
2018-09-10T21:34:05.758Z,40
2018-09-10T21:36:05.455Z,40.3
2018-09-10T21:38:05.233Z,40.3
2018-09-10T21:40:06.100Z,40
2018-09-10T21:42:05.797Z,40
2018-09-10T21:44:05.492Z,40
2018-09-10T21:46:05.251Z,40
2018-09-10T21:48:05.963Z,40.2
2018-09-10T21:50:05.593Z,40.1
2018-09-10T21:52:05.287Z,40.1
2018-09-10T21:54:05.990Z,39.9
2018-09-10T21:56:05.457Z,40.1
2018-09-10T21:58:05.167Z,40.1
2018-09-10T22:00:05.358Z,40
2018-09-10T22:02:05.019Z,40.1
2018-09-10T22:04:05.785Z,40
2018-09-10T22:06:05.445Z,40.1
2018-09-10T22:08:05.100Z,39.9
2018-09-10T22:10:08.491Z,40
2018-09-10T22:12:05.483Z,39.8
2018-09-10T22:14:05.234Z,39.8
2018-09-10T22:16:05.941Z,39.9
2018-09-10T22:18:05.339Z,39.9
2018-09-10T22:20:05.019Z,40.1
2018-09-10T22:22:05.706Z,39.9
2018-09-10T22:24:05.935Z,40.1
2018-09-10T22:26:07.689Z,40.2
2018-09-10T22:28:10.475Z,39.9
2018-09-10T22:30:05.181Z,39.9
2018-09-10T22:32:05.841Z,40
2018-09-10T22:34:05.547Z,40
2018-09-10T22:36:05.373Z,40
2018-09-10T22:38:15.722Z,40
2018-09-10T22:40:05.465Z,40
2018-09-10T22:42:05.169Z,40
2018-09-10T22:44:08.443Z,40
2018-09-10T22:46:05.262Z,40
2018-09-10T22:48:05.956Z,40.1
2018-09-10T22:50:08.204Z,40.1
2018-09-10T22:52:05.436Z,40.1
2018-09-10T22:54:05.159Z,40.1
2018-09-10T22:56:05.394Z,39.9
2018-09-10T22:58:10.661Z,39.9
2018-09-10T23:00:07.890Z,40
2018-09-10T23:02:05.771Z,40
2018-09-10T23:04:05.569Z,39.9
2018-09-10T23:06:05.307Z,39.9
2018-09-10T23:08:05.198Z,40
2018-09-10T23:10:05.531Z,40
2018-09-10T23:12:05.215Z,40
2018-09-10T23:14:05.477Z,40
2018-09-10T23:16:05.739Z,40.2
2018-09-10T23:18:05.653Z,40.1
2018-09-10T23:20:08.514Z,39.9
2018-09-10T23:22:07.752Z,40.2
2018-09-10T23:24:05.434Z,40.2
2018-09-10T23:26:05.138Z,40.2
2018-09-10T23:28:05.875Z,40
2018-09-10T23:30:05.644Z,40.3
2018-09-10T23:32:05.388Z,40
2018-09-10T23:34:05.696Z,40.1
2018-09-10T23:36:05.472Z,40.1
2018-09-10T23:38:05.182Z,40.1
2018-09-10T23:40:05.381Z,40.1
2018-09-10T23:42:05.071Z,40.1
2018-09-10T23:44:05.320Z,40.1
2018-09-10T23:46:11.083Z,39.9
2018-09-10T23:48:10.866Z,40
2018-09-10T23:50:05.555Z,40.2
2018-09-10T23:52:05.465Z,40.2
2018-09-10T23:54:05.218Z,40
2018-09-10T23:56:05.908Z,40
2018-09-10T23:58:05.582Z,40
